Time;durP1;ratioP1;P1;durP2;ratioP2;P2;SDS_P1;SDS_P2;PMS_P1;PMS_P2;Temp;Humidity;BMP_temperature;BMP_pressure;BME280_temperature;BME280_humidity;BME280_pressure;Samples;Min_cycle;Max_cycle;Signal;HPM_P1;HPM_P2
2023/12/15 00:00:35;;;;;;;;;10.00;8.00;;;;;10.41;72.24;102387.50;4959364;28;46124;-71
2023/12/15 00:03:01;;;;;;;;;10.50;7.00;;;;;10.39;72.39;102387.53;4938801;28;45507;-71
2023/12/15 00:05:26;;;;;;;;;6.75;6.75;;;;;10.35;72.89;102388.38;4941149;28;45771;-71
2023/12/15 00:07:51;;;;;;;;;9.00;7.00;;;;;10.35;73.02;102403.22;4925380;28;71928;-71
2023/12/15 00:10:17;;;;;;;;;10.00;8.50;;;;;10.33;73.18;102400.59;4945468;28;65255;-72
2023/12/15 00:12:42;;;;;;;;;7.50;6.00;;;;;10.32;72.80;102400.59;4942090;28;45504;-72
2023/12/15 00:15:08;;;;;;;;;7.00;6.50;;;;;10.32;73.41;102401.44;4943072;28;45526;-72
2023/12/15 00:17:34;;;;;;;;;7.75;6.00;;;;;10.29;73.13;102409.28;4946373;28;45674;-71
2023/12/15 00:19:59;;;;;;;;;11.50;7.75;;;;;10.29;73.62;102400.53;4944950;28;51754;-71
2023/12/15 00:22:24;;;;;;;;;12.25;7.50;;;;;10.30;73.39;102405.78;4940136;28;60294;-70
2023/12/15 00:24:50;;;;;;;;;11.50;8.75;;;;;10.30;74.05;102408.41;4937469;28;68469;-71
2023/12/15 00:27:15;;;;;;;;;12.50;8.50;;;;;10.31;73.67;102404.06;4940572;28;45746;-70
2023/12/15 00:29:40;;;;;;;;;8.00;7.25;;;;;10.31;74.32;102406.69;4935319;28;72705;-71
2023/12/15 00:32:06;;;;;;;;;11.50;8.25;;;;;10.30;74.12;102399.69;4939997;28;71817;-71
2023/12/15 00:34:32;;;;;;;;;12.50;7.50;;;;;10.31;74.03;102402.34;4939914;28;65203;-71
2023/12/15 00:36:57;;;;;;;;;8.00;8.00;;;;;10.31;74.03;102412.81;4938865;28;45552;-71
2023/12/15 00:39:22;;;;;;;;;9.50;6.25;;;;;10.33;74.13;102404.97;4935347;28;59492;-70
2023/12/15 00:41:48;;;;;;;;;8.00;8.00;;;;;10.35;74.33;102411.94;4940521;28;45337;-71
2023/12/15 00:44:13;;;;;;;;;8.50;7.50;;;;;10.37;74.36;102415.41;4941975;28;59674;-70
2023/12/15 00:46:38;;;;;;;;;14.25;8.75;;;;;10.37;74.32;102406.69;4937786;28;57220;-70
2023/12/15 00:49:04;;;;;;;;;11.25;8.25;;;;;10.38;74.70;102406.72;4942023;28;61904;-71
2023/12/15 00:51:29;;;;;;;;;12.00;8.25;;;;;10.39;74.40;102415.41;4940207;28;45303;-71
2023/12/15 00:53:55;;;;;;;;;15.25;8.75;;;;;10.40;74.53;102411.94;4940585;28;45855;-71
2023/12/15 00:56:20;;;;;;;;;12.00;8.75;;;;;10.40;74.72;102412.81;4938592;28;60382;-71
2023/12/15 00:58:45;;;;;;;;;12.25;9.50;;;;;10.40;74.79;102415.44;4939197;28;54528;-71
2023/12/15 01:01:11;;;;;;;;;10.25;9.00;;;;;10.42;74.40;102418.06;4939628;28;45385;-71
2023/12/15 01:03:37;;;;;;;;;17.50;10.50;;;;;10.42;74.68;102410.19;4940554;28;69725;-71
2023/12/15 01:06:02;;;;;;;;;16.00;11.50;;;;;10.45;74.38;102408.44;4938885;28;45497;-70
2023/12/15 01:08:28;;;;;;;;;15.00;13.75;;;;;10.43;74.70;102399.72;4954001;28;57883;-72
2023/12/15 01:10:53;;;;;;;;;10.75;10.75;;;;;10.46;74.58;102401.47;4943576;28;45454;-71
2023/12/15 01:13:18;;;;;;;;;13.50;13.25;;;;;10.42;74.28;102389.25;4938411;28;54183;-70
2023/12/15 01:15:44;;;;;;;;;13.50;13.00;;;;;10.47;74.51;102394.50;4937204;28;73262;-71
2023/12/15 01:18:09;;;;;;;;;13.50;10.25;;;;;10.49;74.74;102396.25;4939393;28;47950;-71
2023/12/15 01:20:35;;;;;;;;;15.50;9.50;;;;;10.50;74.63;102405.84;4939978;28;45492;-71
2023/12/15 01:23:00;;;;;;;;;13.50;13.25;;;;;10.52;74.61;102403.25;4939448;28;56580;-71
2023/12/15 01:25:25;;;;;;;;;22.50;13.75;;;;;10.57;74.69;102411.94;4940259;28;69176;-71
2023/12/15 01:27:51;;;;;;;;;17.00;13.00;;;;;10.57;74.66;102410.22;4938051;28;46252;-72
2023/12/15 01:30:16;;;;;;;;;13.00;11.00;;;;;10.60;74.46;102407.56;4939441;28;45286;-72
2023/12/15 01:32:41;;;;;;;;;14.50;12.50;;;;;10.61;74.30;102411.94;4932099;28;62084;-72
2023/12/15 01:35:08;;;;;;;;;13.75;12.00;;;;;10.62;74.47;102410.19;4938988;28;45745;-70
2023/12/15 01:37:33;;;;;;;;;13.00;11.25;;;;;10.63;74.56;102407.56;4936716;28;74791;-71
2023/12/15 01:39:59;;;;;;;;;16.25;13.75;;;;;10.64;74.47;102413.69;4939887;28;45301;-72
2023/12/15 01:42:26;;;;;;;;;17.00;13.75;;;;;10.63;74.56;102410.19;4940250;28;45355;-71
2023/12/15 01:44:52;;;;;;;;;15.25;13.00;;;;;10.67;74.48;102412.81;4938428;28;45823;-71
2023/12/15 01:47:18;;;;;;;;;18.50;15.00;;;;;10.64;74.72;102416.28;4939125;28;45778;-71
2023/12/15 01:49:46;;;;;;;;;18.00;14.00;;;;;10.66;74.53;102424.16;4940264;28;45845;-72
2023/12/15 01:52:12;;;;;;;;;16.75;13.75;;;;;10.66;74.45;102419.81;4943047;28;45495;-70
2023/12/15 01:54:37;;;;;;;;;18.25;15.50;;;;;10.70;74.46;102426.78;4939641;28;45334;-72
2023/12/15 01:57:03;;;;;;;;;21.25;16.25;;;;;10.72;74.73;102429.41;4936142;28;63793;-71
2023/12/15 01:59:41;;;;;;;;;20.00;14.75;;;;;10.73;74.62;102429.41;4938841;28;45338;-71
2023/12/15 02:02:06;;;;;;;;;19.50;14.00;;;;;10.75;74.41;102440.75;4938785;28;45576;-71
2023/12/15 02:04:32;;;;;;;;;21.75;16.25;;;;;10.76;74.27;102450.34;4951412;28;72721;-69
2023/12/15 02:06:57;;;;;;;;;19.50;17.00;;;;;10.75;74.29;102451.22;4943010;28;75651;-71
2023/12/15 02:09:22;;;;;;;;;15.75;12.25;;;;;10.74;74.49;102452.09;4942660;28;66867;-69
2023/12/15 02:11:48;;;;;;;;;22.25;16.25;;;;;10.73;74.60;102455.59;4943456;28;65180;-69
2023/12/15 02:14:13;;;;;;;;;21.50;16.00;;;;;10.73;74.45;102458.22;4952059;28;67919;-70
2023/12/15 02:16:38;;;;;;;;;14.25;9.00;;;;;10.70;74.33;102458.22;4937747;28;64786;-69
2023/12/15 02:19:04;;;;;;;;;24.25;14.25;;;;;10.69;74.37;102455.59;4939454;28;54030;-70
2023/12/15 02:21:29;;;;;;;;;19.50;14.00;;;;;10.64;74.13;102456.47;4937267;28;69537;-70
2023/12/15 02:23:54;;;;;;;;;18.00;15.00;;;;;10.56;74.03;102459.94;4946271;28;70342;-70
2023/12/15 02:26:19;;;;;;;;;14.75;12.25;;;;;10.56;74.36;102465.19;4938538;28;46171;-70
2023/12/15 02:28:45;;;;;;;;;14.25;12.75;;;;;10.55;74.58;102456.47;4941756;28;72012;-70
2023/12/15 02:31:10;;;;;;;;;17.25;15.00;;;;;10.53;74.84;102463.41;4939219;28;64871;-70
2023/12/15 02:33:35;;;;;;;;;19.00;14.50;;;;;10.52;74.85;102468.69;4938329;28;69751;-70
2023/12/15 02:36:01;;;;;;;;;23.25;17.50;;;;;10.45;75.00;102468.66;4942003;28;55699;-71
2023/12/15 02:38:26;;;;;;;;;24.25;20.25;;;;;10.49;74.56;102466.91;4939206;28;45480;-71
2023/12/15 02:40:51;;;;;;;;;22.50;15.75;;;;;10.50;74.55;102467.78;4953789;28;69987;-71
2023/12/15 02:43:17;;;;;;;;;18.50;13.75;;;;;10.51;74.90;102473.03;4942312;28;53804;-70
2023/12/15 02:45:42;;;;;;;;;18.75;14.00;;;;;10.50;74.43;102471.28;4950418;28;75593;-70
2023/12/15 02:48:07;;;;;;;;;19.50;15.25;;;;;10.49;74.63;102473.91;4942977;28;70853;-71
2023/12/15 02:50:33;;;;;;;;;17.25;14.50;;;;;10.48;74.88;102487.84;4949601;28;61241;-71
2023/12/15 02:52:58;;;;;;;;;15.25;13.50;;;;;10.46;74.76;102495.69;4946888;28;45268;-71
2023/12/15 02:55:23;;;;;;;;;16.25;13.25;;;;;10.47;75.03;102486.97;4947294;28;65959;-70
2023/12/15 02:57:48;;;;;;;;;12.50;8.50;;;;;10.50;74.35;102500.09;4947068;28;73514;-70
2023/12/15 03:00:14;;;;;;;;;13.00;9.75;;;;;10.46;74.55;102500.94;4946864;28;62402;-70
2023/12/15 03:02:39;;;;;;;;;20.50;14.50;;;;;10.40;74.44;102507.03;4940520;28;72452;-70
2023/12/15 03:05:05;;;;;;;;;16.00;12.75;;;;;10.38;74.70;102510.53;4948049;28;65742;-71
2023/12/15 03:07:31;;;;;;;;;17.50;15.00;;;;;10.33;74.68;102518.34;4941550;28;45855;-71
2023/12/15 03:09:56;;;;;;;;;17.75;13.50;;;;;10.32;74.93;102518.34;4943895;28;47410;-70
2023/12/15 03:12:22;;;;;;;;;17.25;14.00;;;;;10.30;74.35;102525.28;4947917;28;46130;-71
2023/12/15 03:14:48;;;;;;;;;17.75;14.25;;;;;10.25;74.91;102531.41;4939218;28;46368;-71
2023/12/15 03:17:15;;;;;;;;;14.25;11.25;;;;;10.24;74.73;102534.00;4941496;28;45482;-71
2023/12/15 03:19:41;;;;;;;;;15.75;12.25;;;;;10.21;74.91;102539.22;4942071;28;45334;-71
2023/12/15 03:22:06;;;;;;;;;19.50;15.00;;;;;10.16;74.98;102539.19;4957175;28;45560;-71
2023/12/15 03:24:31;;;;;;;;;14.00;12.00;;;;;10.12;74.97;102534.81;4930679;28;75543;-71
2023/12/15 03:26:57;;;;;;;;;16.25;12.50;;;;;10.11;74.97;102543.56;4944414;28;66084;-71
2023/12/15 03:29:22;;;;;;;;;14.25;11.00;;;;;10.06;75.17;102533.06;4939957;28;45509;-71
2023/12/15 03:31:47;;;;;;;;;16.75;14.00;;;;;10.07;74.87;102545.28;4941552;28;64136;-71
2023/12/15 03:34:13;;;;;;;;;14.75;14.00;;;;;10.04;74.94;102539.16;4942219;28;46942;-71
2023/12/15 03:36:38;;;;;;;;;15.50;11.00;;;;;10.03;75.36;102540.03;4938920;28;45428;-71
2023/12/15 03:39:07;;;;;;;;;16.25;11.75;;;;;10.02;75.20;102549.63;4949472;28;45552;-70
2023/12/15 03:41:33;;;;;;;;;21.75;16.00;;;;;10.03;75.40;102556.56;4951638;28;45371;-71
2023/12/15 03:43:58;;;;;;;;;21.50;15.00;;;;;10.04;75.38;102553.13;4940748;28;46502;-71
2023/12/15 03:46:24;;;;;;;;;17.50;13.50;;;;;10.07;75.41;102568.81;4939968;28;45576;-71
2023/12/15 03:48:49;;;;;;;;;21.00;15.00;;;;;10.09;75.75;102571.41;4935475;28;68137;-71
2023/12/15 03:51:14;;;;;;;;;17.50;13.75;;;;;10.13;75.85;102574.94;4939688;28;45399;-72
2023/12/15 03:53:40;;;;;;;;;25.75;16.00;;;;;10.15;75.74;102574.09;4938872;28;75556;-72
2023/12/15 03:56:05;;;;;;;;;22.50;19.75;;;;;10.15;75.37;102574.09;4944180;28;70397;-70
2023/12/15 03:58:31;;;;;;;;;17.25;14.50;;;;;10.24;75.56;102584.59;4938776;28;45350;-70
2023/12/15 04:00:56;;;;;;;;;19.50;13.75;;;;;10.24;75.32;102589.81;4939252;28;68596;-70
2023/12/15 04:03:22;;;;;;;;;18.50;14.75;;;;;10.27;75.20;102588.97;4941192;28;74447;-71
2023/12/15 04:05:47;;;;;;;;;20.50;15.00;;;;;10.27;74.96;102595.06;4948458;28;45316;-71
2023/12/15 04:08:13;;;;;;;;;17.00;14.25;;;;;10.23;75.38;102589.81;4935497;28;45370;-71
2023/12/15 04:10:39;;;;;;;;;24.00;13.00;;;;;10.21;75.44;102599.41;4937666;28;45451;-71
2023/12/15 04:13:04;;;;;;;;;14.00;12.00;;;;;10.23;75.31;102602.88;4923695;28;46985;-71
2023/12/15 04:15:30;;;;;;;;;18.75;12.00;;;;;10.21;75.11;102599.41;4941563;28;45254;-70
2023/12/15 04:17:55;;;;;;;;;17.50;12.25;;;;;10.23;75.46;102611.63;4941014;28;45448;-70
2023/12/15 04:20:20;;;;;;;;;16.25;14.50;;;;;10.22;75.50;102609.00;4937759;28;45655;-70
2023/12/15 04:22:46;;;;;;;;;20.50;11.00;;;;;10.23;75.47;102610.72;4945268;28;74748;-70
2023/12/15 04:25:11;;;;;;;;;18.75;14.75;;;;;10.23;75.47;102603.78;4938843;28;45340;-71
2023/12/15 04:27:37;;;;;;;;;16.25;13.75;;;;;10.25;75.35;102614.22;4940955;28;45385;-71
2023/12/15 04:30:03;;;;;;;;;20.00;15.00;;;;;10.27;75.82;102618.63;4937635;28;70913;-71
2023/12/15 04:32:28;;;;;;;;;14.50;11.25;;;;;10.27;75.50;102617.75;4939904;28;45501;-71
2023/12/15 04:34:53;;;;;;;;;21.00;14.00;;;;;10.30;75.60;102622.97;4943676;28;64165;-71
2023/12/15 04:37:18;;;;;;;;;16.75;13.25;;;;;10.29;75.16;102628.19;4939137;28;69309;-71
2023/12/15 04:39:46;;;;;;;;;20.00;15.25;;;;;10.27;75.59;102633.44;4941253;28;55177;-72
2023/12/15 04:42:12;;;;;;;;;16.00;10.50;;;;;10.30;75.09;102629.97;4957583;28;45510;-71
2023/12/15 04:44:37;;;;;;;;;17.00;15.00;;;;;10.27;75.21;102643.91;4940884;28;46708;-71
2023/12/15 04:47:02;;;;;;;;;13.25;11.75;;;;;10.26;75.60;102644.78;4945640;28;45362;-71
2023/12/15 04:49:28;;;;;;;;;18.25;12.75;;;;;10.26;75.30;102650.88;4941251;28;45590;-71
2023/12/15 04:51:53;;;;;;;;;16.50;12.75;;;;;10.30;75.30;102663.97;4922025;28;76644;-71
2023/12/15 04:54:18;;;;;;;;;18.75;13.50;;;;;10.29;75.78;102655.25;4951402;28;75113;-71
2023/12/15 04:56:44;;;;;;;;;11.75;11.00;;;;;10.29;75.10;102657.88;4937881;28;58844;-71
2023/12/15 04:59:10;;;;;;;;;15.25;11.00;;;;;10.29;75.30;102654.38;4940895;28;45389;-71
2023/12/15 05:01:35;;;;;;;;;16.00;10.75;;;;;10.29;75.32;102662.22;4938607;28;46198;-71
2023/12/15 05:04:01;;;;;;;;;17.75;13.00;;;;;10.27;75.49;102663.09;4947300;28;70266;-71
2023/12/15 05:06:27;;;;;;;;;12.50;12.50;;;;;10.27;75.49;102667.47;4941810;28;45505;-71
2023/12/15 05:08:53;;;;;;;;;15.50;12.25;;;;;10.26;75.53;102668.31;4941911;28;45539;-72
2023/12/15 05:11:19;;;;;;;;;14.25;12.75;;;;;10.29;75.60;102676.19;4937658;28;62084;-71
2023/12/15 05:13:44;;;;;;;;;14.00;11.00;;;;;10.29;75.31;102672.69;4940056;28;45536;-71
2023/12/15 05:16:09;;;;;;;;;19.00;12.00;;;;;10.29;75.68;102681.44;4921880;28;45514;-71
2023/12/15 05:18:35;;;;;;;;;10.75;10.25;;;;;10.30;75.45;102684.91;4939111;28;69429;-71
2023/12/15 05:21:00;;;;;;;;;16.50;11.00;;;;;10.31;75.51;102690.19;4940587;28;45477;-71
2023/12/15 05:23:26;;;;;;;;;18.00;11.75;;;;;10.32;75.32;102691.94;4948411;28;45391;-71
2023/12/15 05:25:51;;;;;;;;;19.00;13.25;;;;;10.33;75.43;102687.59;4935446;28;45500;-71
2023/12/15 05:28:17;;;;;;;;;14.50;10.75;;;;;10.33;75.31;102691.06;4937946;28;56687;-70
2023/12/15 05:30:42;;;;;;;;;16.25;11.50;;;;;10.29;75.68;102685.78;4940729;28;74059;-71
2023/12/15 05:33:07;;;;;;;;;22.50;15.00;;;;;10.31;75.71;102690.19;4944470;28;71748;-71
2023/12/15 05:35:33;;;;;;;;;16.00;14.50;;;;;10.34;75.54;102682.38;4939352;28;66024;-71
2023/12/15 05:37:59;;;;;;;;;19.00;14.50;;;;;10.36;75.90;102685.88;4939365;28;45472;-71
2023/12/15 05:40:24;;;;;;;;;16.50;13.75;;;;;10.37;75.77;102684.13;4937777;28;56439;-71
2023/12/15 05:42:50;;;;;;;;;16.75;12.00;;;;;10.38;75.22;102685.88;4944766;28;45425;-70
2023/12/15 05:45:15;;;;;;;;;19.25;11.75;;;;;10.36;75.15;102685.00;4940329;28;45478;-71
2023/12/15 05:47:40;;;;;;;;;17.00;13.75;;;;;10.38;75.39;102685.88;4938210;28;68088;-71
2023/12/15 05:50:06;;;;;;;;;21.25;13.50;;;;;10.39;75.62;102677.13;4942746;28;51748;-71
2023/12/15 05:52:32;;;;;;;;;18.00;13.50;;;;;10.37;75.63;102678.88;4937690;28;45919;-71
2023/12/15 05:54:57;;;;;;;;;17.75;14.00;;;;;10.41;75.82;102693.72;4937558;28;68129;-71
2023/12/15 05:57:22;;;;;;;;;15.00;13.25;;;;;10.41;75.72;102689.38;4933885;28;68099;-71
2023/12/15 05:59:48;;;;;;;;;14.25;12.50;;;;;10.44;76.01;102696.38;4940641;28;72733;-71
2023/12/15 06:02:13;;;;;;;;;23.50;15.50;;;;;10.45;75.55;102692.91;4937240;28;73173;-71
2023/12/15 06:04:38;;;;;;;;;16.50;12.00;;;;;10.49;75.62;102693.78;4953206;28;46391;-71
2023/12/15 06:07:04;;;;;;;;;14.25;13.25;;;;;10.51;75.72;102708.63;4959219;28;71414;-71
2023/12/15 06:09:29;;;;;;;;;23.25;17.75;;;;;10.54;75.31;102710.38;4953374;28;52362;-71
2023/12/15 06:11:55;;;;;;;;;15.50;15.00;;;;;10.57;75.64;102706.03;4946484;28;71566;-70
2023/12/15 06:14:20;;;;;;;;;13.00;11.00;;;;;10.60;75.39;102708.66;4940359;28;45517;-70
2023/12/15 06:16:46;;;;;;;;;16.25;12.75;;;;;10.64;75.43;102709.53;4936937;28;45523;-70
2023/12/15 06:19:12;;;;;;;;;14.00;12.25;;;;;10.68;75.11;102718.28;4936593;28;47067;-70
2023/12/15 06:21:37;;;;;;;;;20.50;12.50;;;;;10.68;75.15;102702.56;4940253;28;62854;-70
2023/12/15 06:24:03;;;;;;;;;13.75;11.75;;;;;10.71;75.24;102715.69;4930451;28;45376;-70
2023/12/15 06:26:28;;;;;;;;;15.50;12.50;;;;;10.71;74.93;102721.81;4923932;28;45552;-70
2023/12/15 06:28:54;;;;;;;;;17.25;13.00;;;;;10.73;75.16;102727.03;4941178;28;45489;-70
2023/12/15 06:31:19;;;;;;;;;17.25;12.50;;;;;10.74;74.69;102731.41;4943674;28;46677;-70
2023/12/15 06:33:45;;;;;;;;;17.00;13.25;;;;;10.74;74.65;102734.91;4958344;28;45362;-70
2023/12/15 06:36:11;;;;;;;;;15.75;10.50;;;;;10.76;74.64;102737.53;4942347;28;45432;-70
2023/12/15 06:38:36;;;;;;;;;12.25;11.00;;;;;10.78;74.83;102744.56;4941486;28;48143;-70
2023/12/15 06:41:04;;;;;;;;;12.75;11.00;;;;;10.79;74.76;102755.88;4942991;28;45422;-70
2023/12/15 06:43:30;;;;;;;;;66.50;48.25;;;;;10.80;74.56;102757.63;4941595;28;45401;-70
2023/12/15 06:45:55;;;;;;;;;26.00;20.75;;;;;10.81;74.85;102749.78;4923110;28;72056;-70
2023/12/15 06:48:20;;;;;;;;;17.50;13.25;;;;;10.83;74.52;102749.78;4942473;28;50904;-69
2023/12/15 06:50:46;;;;;;;;;15.75;10.75;;;;;10.86;74.40;102752.44;4940385;28;45624;-70
2023/12/15 06:53:11;;;;;;;;;14.75;14.00;;;;;10.89;74.53;102754.16;4924807;28;45724;-70
2023/12/15 06:55:36;;;;;;;;;15.25;14.00;;;;;10.86;74.45;102755.03;4960322;28;45655;-71
2023/12/15 06:58:02;;;;;;;;;21.25;17.25;;;;;10.89;74.11;102776.03;4955102;28;72049;-70
2023/12/15 07:00:27;;;;;;;;;19.25;13.00;;;;;10.87;74.12;102764.66;4921108;28;72333;-70
2023/12/15 07:02:52;;;;;;;;;19.00;12.25;;;;;10.87;74.34;102750.69;4938764;28;45485;-70
2023/12/15 07:05:18;;;;;;;;;19.25;12.75;;;;;10.86;73.98;102749.81;4940715;28;73109;-70
2023/12/15 07:07:43;;;;;;;;;18.25;14.75;;;;;10.87;74.15;102769.00;4941671;28;55981;-70
2023/12/15 07:10:08;;;;;;;;;18.00;15.25;;;;;10.83;74.32;102783.84;4939518;28;68146;-70
2023/12/15 07:12:34;;;;;;;;;16.00;15.25;;;;;10.87;74.26;102803.06;4938545;28;45290;-69
2023/12/15 07:14:59;;;;;;;;;18.50;12.75;;;;;10.86;74.21;102807.44;4940148;28;65615;-70
2023/12/15 07:17:24;;;;;;;;;14.25;11.75;;;;;10.86;74.25;102811.81;4943164;28;45432;-71
2023/12/15 07:19:50;;;;;;;;;17.75;14.25;;;;;10.88;74.18;102825.78;4942288;28;45544;-70
2023/12/15 07:22:15;;;;;;;;;16.00;13.75;;;;;10.87;73.69;102827.53;4941458;28;67266;-71
2023/12/15 07:24:41;;;;;;;;;20.75;16.50;;;;;10.83;74.38;102817.88;4939514;28;71414;-70
2023/12/15 07:27:06;;;;;;;;;15.75;13.00;;;;;10.87;74.27;102827.53;4933972;28;47915;-70
2023/12/15 07:29:32;;;;;;;;;18.50;12.75;;;;;10.87;74.27;102814.44;4957200;28;45367;-69
2023/12/15 07:31:58;;;;;;;;;17.50;15.00;;;;;10.90;74.12;102816.19;4940460;28;45460;-69
2023/12/15 07:34:23;;;;;;;;;26.00;17.00;;;;;10.84;74.40;102814.41;4934131;28;45389;-69
2023/12/15 07:36:49;;;;;;;;;16.00;15.00;;;;;10.86;74.26;102820.53;4939800;28;75316;-70
2023/12/15 07:39:21;;;;;;;;;19.25;15.25;;;;;10.83;74.42;102831.84;4945205;28;62266;-70
2023/12/15 07:41:47;;;;;;;;;15.50;12.75;;;;;10.80;74.64;102847.56;4940034;28;45336;-70
2023/12/15 07:44:13;;;;;;;;;22.00;16.50;;;;;10.77;74.90;102850.16;4924222;28;45307;-70
2023/12/15 07:46:38;;;;;;;;;24.25;17.00;;;;;10.77;74.96;102857.16;4939088;28;46155;-70
2023/12/15 07:49:03;;;;;;;;;23.00;14.50;;;;;10.74;74.59;102854.50;4942375;28;54740;-70
2023/12/15 07:51:29;;;;;;;;;18.50;15.25;;;;;10.72;74.77;102862.34;4939850;28;64078;-69
2023/12/15 07:53:54;;;;;;;;;24.50;18.75;;;;;10.73;75.02;102856.25;4938956;28;45421;-70
2023/12/15 07:56:24;;;;;;;;;23.75;17.50;;;;;10.76;75.03;102860.63;4936275;28;46141;-70
2023/12/15 07:58:51;;;;;;;;;24.25;17.00;;;;;10.77;74.88;102870.25;4947010;28;45887;-75
2023/12/15 08:01:20;;;;;;;;;31.00;17.50;;;;;10.76;75.11;102869.34;4941019;28;45378;-69
2023/12/15 08:03:46;;;;;;;;;20.25;14.25;;;;;10.75;74.80;102866.75;4942609;28;45508;-72
2023/12/15 08:06:13;;;;;;;;;26.25;16.50;;;;;10.77;74.69;102878.09;4948265;28;45614;-72
2023/12/15 08:08:39;;;;;;;;;26.50;18.75;;;;;10.77;74.90;102880.72;4944476;28;45453;-71
2023/12/15 08:11:05;;;;;;;;;18.00;16.75;;;;;10.76;74.54;102881.56;4941661;28;45520;-72
2023/12/15 08:13:30;;;;;;;;;23.25;14.75;;;;;10.76;74.43;102882.44;4946921;28;47158;-71
2023/12/15 08:15:56;;;;;;;;;14.25;12.00;;;;;10.78;74.44;102879.84;4942686;28;75485;-72
2023/12/15 08:18:21;;;;;;;;;24.00;16.00;;;;;10.78;74.36;102883.34;4942383;28;45427;-72
2023/12/15 08:20:47;;;;;;;;;17.25;15.75;;;;;10.80;74.35;102892.09;4937271;28;69252;-72
2023/12/15 08:23:13;;;;;;;;;23.50;17.75;;;;;10.83;74.44;102893.84;4938123;28;45409;-72
2023/12/15 08:25:39;;;;;;;;;22.75;17.00;;;;;10.86;74.31;102903.47;4945809;28;46316;-73
2023/12/15 08:28:04;;;;;;;;;18.50;16.25;;;;;10.89;74.40;102909.63;4937133;28;72123;-71
2023/12/15 08:30:30;;;;;;;;;22.00;16.75;;;;;10.92;74.22;102908.75;4938704;28;58583;-71
2023/12/15 08:32:55;;;;;;;;;23.00;16.50;;;;;10.94;73.97;102900.06;4939200;28;47780;-72
2023/12/15 08:35:20;;;;;;;;;26.00;18.25;;;;;10.97;74.36;102905.28;4948606;28;48196;-71
2023/12/15 08:37:46;;;;;;;;;19.25;17.00;;;;;11.00;73.98;102907.06;4941126;28;45420;-70
2023/12/15 08:40:11;;;;;;;;;31.00;21.50;;;;;11.04;73.91;102918.44;4944237;28;69157;-69
2023/12/15 08:42:37;;;;;;;;;23.50;17.25;;;;;11.04;74.13;102919.31;4952537;28;45381;-69
2023/12/15 08:45:02;;;;;;;;;22.50;15.25;;;;;11.07;74.21;102926.31;4940813;28;66130;-72
2023/12/15 08:47:28;;;;;;;;;22.75;16.50;;;;;11.10;73.92;102936.81;4945788;28;45509;-71
2023/12/15 08:49:54;;;;;;;;;21.25;16.25;;;;;11.10;74.02;102929.84;4944361;28;47833;-75
2023/12/15 08:52:20;;;;;;;;;19.25;17.50;;;;;11.15;73.73;102929.84;4944890;28;50732;-72
2023/12/15 08:54:45;;;;;;;;;24.50;16.50;;;;;11.19;73.63;102931.59;4938125;28;71300;-73
2023/12/15 08:57:11;;;;;;;;;23.00;16.75;;;;;11.24;73.75;102926.41;4966067;28;45625;-78
2023/12/15 08:59:36;;;;;;;;;19.25;16.00;;;;;11.29;73.09;102932.56;4948638;28;58196;-73
2023/12/15 09:02:01;;;;;;;;;19.75;16.00;;;;;11.34;73.28;102930.84;4929509;28;69426;-75
2023/12/15 09:04:27;;;;;;;;;21.50;16.75;;;;;11.39;72.96;102932.59;4944338;28;46181;-73
2023/12/15 09:06:53;;;;;;;;;20.75;15.25;;;;;11.45;73.14;102923.88;4938303;28;73405;-75
2023/12/15 09:09:21;;;;;;;;;22.50;15.50;;;;;11.51;72.99;102928.28;4941770;28;47206;-71
2023/12/15 09:11:46;;;;;;;;;25.25;17.75;;;;;11.56;72.82;102937.94;4938803;28;45509;-67
2023/12/15 09:14:12;;;;;;;;;15.00;13.25;;;;;11.61;72.45;102939.69;4937324;28;45421;-70
2023/12/15 09:16:37;;;;;;;;;19.25;16.00;;;;;11.65;72.56;102942.34;4936759;28;57967;-79
2023/12/15 09:19:02;;;;;;;;;15.75;14.00;;;;;11.70;71.87;102947.59;4943807;28;66375;-82
2023/12/15 09:21:28;;;;;;;;;16.25;11.00;;;;;11.71;71.61;102952.00;4940458;28;53462;-77
2023/12/15 09:23:56;;;;;;;;;17.25;11.00;;;;;11.74;71.34;102965.13;4939383;28;45384;-69
2023/12/15 09:26:21;;;;;;;;;15.50;13.50;;;;;11.79;71.28;102960.75;4940420;28;45440;-68
2023/12/15 09:28:47;;;;;;;;;19.50;15.75;;;;;11.82;71.22;102950.28;4939008;28;51605;-68
2023/12/15 09:31:12;;;;;;;;;18.00;12.00;;;;;11.91;71.34;102958.19;4954978;28;66271;-68
2023/12/15 09:33:37;;;;;;;;;20.75;10.50;;;;;11.99;71.20;102967.84;4939546;28;46400;-68
2023/12/15 09:36:03;;;;;;;;;24.25;16.25;;;;;12.03;70.77;102960.00;4942611;28;58413;-69
2023/12/15 09:38:28;;;;;;;;;20.25;16.50;;;;;12.09;70.39;102965.28;4938740;28;45696;-68
2023/12/15 09:40:54;;;;;;;;;28.25;16.50;;;;;12.13;70.53;102960.91;4939329;28;70962;-70
2023/12/15 09:43:19;;;;;;;;;18.00;16.00;;;;;12.23;70.48;102973.16;4938073;28;46090;-68
2023/12/15 09:45:45;;;;;;;;;22.25;16.25;;;;;12.26;69.99;102973.16;4940586;28;45464;-67
2023/12/15 09:48:13;;;;;;;;;22.75;15.00;;;;;12.30;69.87;102980.16;4938476;28;45505;-68
2023/12/15 09:50:40;;;;;;;;;15.00;11.50;;;;;12.33;69.60;102990.69;4930566;28;72925;-68
2023/12/15 09:53:06;;;;;;;;;15.75;13.00;;;;;12.36;69.46;102995.09;4939565;28;45900;-70
2023/12/15 09:55:33;;;;;;;;;22.75;16.25;;;;;12.40;69.23;102995.97;4934561;28;45461;-70
2023/12/15 09:57:59;;;;;;;;;19.00;12.50;;;;;12.43;69.75;103002.09;4942332;28;45359;-70
2023/12/15 10:00:24;;;;;;;;;16.75;14.50;;;;;12.51;69.16;103004.72;4944086;28;45512;-74
2023/12/15 10:02:50;;;;;;;;;17.50;12.75;;;;;12.54;68.96;103004.72;4939968;28;74383;-71
2023/12/15 10:05:16;;;;;;;;;13.50;11.25;;;;;12.60;68.60;103014.38;4942922;28;72157;-72
2023/12/15 10:07:41;;;;;;;;;17.25;12.00;;;;;12.64;68.91;103024.88;4943199;28;45420;-72
2023/12/15 10:10:06;;;;;;;;;12.25;11.00;;;;;12.66;68.52;103010.00;4939911;28;45355;-72
2023/12/15 10:12:32;;;;;;;;;16.25;11.25;;;;;12.71;68.75;103012.59;4943146;28;45504;-71
2023/12/15 10:14:57;;;;;;;;;12.75;11.25;;;;;12.71;68.10;103025.75;4942515;28;56250;-72
2023/12/15 10:17:22;;;;;;;;;13.75;10.25;;;;;12.68;68.22;103016.13;4940750;28;66669;-72
2023/12/15 10:19:48;;;;;;;;;16.25;10.00;;;;;12.66;68.13;103020.50;4941686;28;73038;-72
2023/12/15 10:22:13;;;;;;;;;18.50;12.00;;;;;12.69;68.14;103024.88;4942961;28;45260;-72
2023/12/15 10:24:39;;;;;;;;;9.00;9.00;;;;;12.72;68.02;103017.88;4942000;28;45310;-71
2023/12/15 10:27:07;;;;;;;;;17.75;9.75;;;;;12.75;67.83;103029.25;4941561;28;45551;-72
2023/12/15 10:29:37;;;;;;;;;14.75;9.50;;;;;12.81;68.18;103029.28;4943281;28;45571;-70
2023/12/15 10:32:04;;;;;;;;;12.75;6.75;;;;;12.84;68.20;103032.78;4940483;28;48365;-79
2023/12/15 10:34:30;;;;;;;;;14.75;11.75;;;;;12.80;67.59;103045.91;4942992;28;46368;-76
2023/12/15 10:36:55;;;;;;;;;17.00;14.25;;;;;12.77;67.52;103044.16;4956006;28;63698;-77
2023/12/15 10:39:22;;;;;;;;;10.25;8.25;;;;;12.82;67.87;103058.19;4937397;28;66868;-74
2023/12/15 10:41:48;;;;;;;;;24.50;18.50;;;;;12.87;67.56;103063.41;4941288;28;46165;-76
2023/12/15 10:44:14;;;;;;;;;25.00;22.25;;;;;12.91;67.77;103065.19;4942220;28;60196;-79
2023/12/15 10:46:41;;;;;;;;;25.50;22.50;;;;;12.91;67.71;103066.06;4942160;28;45477;-76
2023/12/15 10:49:09;;;;;;;;;28.00;19.75;;;;;12.92;67.52;103061.69;4941953;28;45358;-79
2023/12/15 10:51:37;;;;;;;;;32.00;21.75;;;;;12.91;67.76;103067.81;4940276;28;47039;-77
2023/12/15 10:54:05;;;;;;;;;30.75;23.50;;;;;12.92;67.93;103077.44;4941868;28;45828;-76
2023/12/15 10:56:30;;;;;;;;;25.00;23.00;;;;;12.91;68.41;103079.22;4937628;28;47272;-71
2023/12/15 10:58:56;;;;;;;;;32.25;23.75;;;;;12.88;68.35;103088.84;4937464;28;45824;-73
2023/12/15 11:01:22;;;;;;;;;25.00;19.25;;;;;12.84;68.28;103097.59;4917664;28;74485;-74